sensor_id;sensor_type;location;lat;lon;timestamp;pressure;altitude;pressure_sealevel;temperature;humidity
31005;BME280;17676;52.254;4.490;2023-03-13T00:00:50;99903.94;;;10.06;100.00
31005;BME280;17676;52.254;4.490;2023-03-13T00:03:16;99898.53;;;10.06;100.00
31005;BME280;17676;52.254;4.490;2023-03-13T00:05:42;99886.91;;;10.06;100.00
31005;BME280;17676;52.254;4.490;2023-03-13T00:08:08;99893.50;;;10.10;100.00
31005;BME280;17676;52.254;4.490;2023-03-13T00:10:38;99885.69;;;10.02;100.00
31005;BME280;17676;52.254;4.490;2023-03-13T00:13:04;99886.13;;;10.17;100.00
31005;BME280;17676;52.254;4.490;2023-03-13T00:15:31;99857.75;;;10.08;100.00
31005;BME280;17676;52.254;4.490;2023-03-13T00:17:57;99862.13;;;10.09;100.00
31005;BME280;17676;52.254;4.490;2023-03-13T00:20:24;99856.13;;;10.18;100.00
31005;BME280;17676;52.254;4.490;2023-03-13T00:22:50;99854.88;;;10.21;96.39
31005;BME280;17676;52.254;4.490;2023-03-13T00:25:15;99835.66;;;10.11;72.30
31005;BME280;17676;52.254;4.490;2023-03-13T00:27:51;99858.78;;;10.25;67.20
31005;BME280;17676;52.254;4.490;2023-03-13T00:30:24;99838.78;;;10.26;62.81
31005;BME280;17676;52.254;4.490;2023-03-13T00:33:01;99835.47;;;10.24;59.34
31005;BME280;17676;52.254;4.490;2023-03-13T00:35:31;99837.28;;;10.30;57.34
31005;BME280;17676;52.254;4.490;2023-03-13T00:37:56;99831.38;;;10.33;55.22
31005;BME280;17676;52.254;4.490;2023-03-13T00:40:22;99814.13;;;10.34;53.72
31005;BME280;17676;52.254;4.490;2023-03-13T00:42:48;99818.34;;;10.42;52.23
31005;BME280;17676;52.254;4.490;2023-03-13T00:45:13;99796.50;;;10.43;51.11
31005;BME280;17676;52.254;4.490;2023-03-13T00:47:39;99825.91;;;10.51;50.70
31005;BME280;17676;52.254;4.490;2023-03-13T00:50:05;99812.38;;;10.51;50.21
31005;BME280;17676;52.254;4.490;2023-03-13T00:52:30;99834.97;;;10.57;49.74
31005;BME280;17676;52.254;4.490;2023-03-13T00:54:56;99827.09;;;10.55;49.23
31005;BME280;17676;52.254;4.490;2023-03-13T00:57:21;99826.03;;;10.56;48.53
31005;BME280;17676;52.254;4.490;2023-03-13T00:59:47;99822.13;;;10.52;48.01
31005;BME280;17676;52.254;4.490;2023-03-13T01:02:12;99834.75;;;10.58;47.49
31005;BME280;17676;52.254;4.490;2023-03-13T01:04:38;99819.81;;;10.67;46.48
31005;BME280;17676;52.254;4.490;2023-03-13T01:07:04;99849.69;;;10.72;46.06
31005;BME280;17676;52.254;4.490;2023-03-13T01:09:30;99803.47;;;10.62;45.54
31005;BME280;17676;52.254;4.490;2023-03-13T01:11:56;99801.22;;;10.71;44.71
31005;BME280;17676;52.254;4.490;2023-03-13T01:14:21;99779.34;;;10.72;44.10
31005;BME280;17676;52.254;4.490;2023-03-13T01:16:47;99781.47;;;10.70;43.52
31005;BME280;17676;52.254;4.490;2023-03-13T01:19:14;99792.06;;;10.83;42.72
31005;BME280;17676;52.254;4.490;2023-03-13T01:21:45;99768.25;;;10.85;42.01
31005;BME280;17676;52.254;4.490;2023-03-13T01:24:11;99780.16;;;10.84;41.53
31005;BME280;17676;52.254;4.490;2023-03-13T01:26:37;99755.34;;;10.87;40.96
31005;BME280;17676;52.254;4.490;2023-03-13T01:29:03;99760.75;;;10.87;40.49
31005;BME280;17676;52.254;4.490;2023-03-13T01:31:31;99763.44;;;10.99;39.97
31005;BME280;17676;52.254;4.490;2023-03-13T01:34:00;99756.16;;;10.88;39.69
31005;BME280;17676;52.254;4.490;2023-03-13T01:36:26;99753.56;;;10.93;39.26
31005;BME280;17676;52.254;4.490;2023-03-13T01:38:54;99771.31;;;11.00;38.98
31005;BME280;17676;52.254;4.490;2023-03-13T01:41:22;99754.25;;;11.00;38.66
31005;BME280;17676;52.254;4.490;2023-03-13T01:43:48;99749.91;;;10.99;38.36
31005;BME280;17676;52.254;4.490;2023-03-13T01:46:23;99754.13;;;11.06;38.01
31005;BME280;17676;52.254;4.490;2023-03-13T01:49:11;99753.06;;;11.07;37.71
31005;BME280;17676;52.254;4.490;2023-03-13T01:52:03;99715.88;;;11.03;37.20
31005;BME280;17676;52.254;4.490;2023-03-13T01:54:39;99735.63;;;11.15;36.99
31005;BME280;17676;52.254;4.490;2023-03-13T01:57:24;99721.50;;;11.13;36.89
31005;BME280;17676;52.254;4.490;2023-03-13T01:59:52;99733.84;;;11.20;36.81
31005;BME280;17676;52.254;4.490;2023-03-13T02:02:20;99724.66;;;11.21;36.64
31005;BME280;17676;52.254;4.490;2023-03-13T02:04:55;99718.66;;;11.19;36.56
31005;BME280;17676;52.254;4.490;2023-03-13T02:07:45;99721.47;;;11.24;36.50
31005;BME280;17676;52.254;4.490;2023-03-13T02:10:13;99723.25;;;11.30;36.45
31005;BME280;17676;52.254;4.490;2023-03-13T02:12:42;99718.47;;;11.37;36.59
31005;BME280;17676;52.254;4.490;2023-03-13T02:15:10;99713.06;;;11.37;36.75
31005;BME280;17676;52.254;4.490;2023-03-13T02:17:38;99718.97;;;11.34;36.79
31005;BME280;17676;52.254;4.490;2023-03-13T02:20:05;99730.97;;;11.38;36.84
31005;BME280;17676;52.254;4.490;2023-03-13T02:22:37;99744.91;;;11.58;36.91
31005;BME280;17676;52.254;4.490;2023-03-13T02:27:42;99723.94;;;11.65;37.38
31005;BME280;17676;52.254;4.490;2023-03-13T02:30:10;99725.19;;;11.74;37.45
31005;BME280;17676;52.254;4.490;2023-03-13T02:32:39;99713.16;;;11.82;39.41
31005;BME280;17676;52.254;4.490;2023-03-13T02:35:08;99692.19;;;11.77;39.78
31005;BME280;17676;52.254;4.490;2023-03-13T02:37:34;99692.84;;;11.84;40.18
31005;BME280;17676;52.254;4.490;2023-03-13T02:40:04;99696.81;;;11.93;39.93
31005;BME280;17676;52.254;4.490;2023-03-13T02:42:38;99696.72;;;11.88;39.93
31005;BME280;17676;52.254;4.490;2023-03-13T02:45:06;99697.88;;;11.92;39.78
31005;BME280;17676;52.254;4.490;2023-03-13T02:47:31;99673.47;;;11.92;39.56
31005;BME280;17676;52.254;4.490;2023-03-13T02:49:57;99683.91;;;12.00;39.42
31005;BME280;17676;52.254;4.490;2023-03-13T02:52:25;99647.03;;;11.99;39.30
31005;BME280;17676;52.254;4.490;2023-03-13T02:54:58;99682.44;;;12.09;39.25
31005;BME280;17676;52.254;4.490;2023-03-13T02:57:25;99661.31;;;12.11;39.29
31005;BME280;17676;52.254;4.490;2023-03-13T02:59:50;99628.53;;;12.13;39.24
31005;BME280;17676;52.254;4.490;2023-03-13T03:02:16;99533.69;;;12.18;39.35
31005;BME280;17676;52.254;4.490;2023-03-13T03:04:42;99515.50;;;12.18;39.43
31005;BME280;17676;52.254;4.490;2023-03-13T03:07:08;99513.47;;;12.30;39.51
31005;BME280;17676;52.254;4.490;2023-03-13T03:09:33;99511.84;;;12.29;39.76
31005;BME280;17676;52.254;4.490;2023-03-13T03:11:59;99471.91;;;12.25;39.95
31005;BME280;17676;52.254;4.490;2023-03-13T03:14:24;99460.34;;;12.34;40.21
31005;BME280;17676;52.254;4.490;2023-03-13T03:16:50;99439.50;;;12.35;40.47
31005;BME280;17676;52.254;4.490;2023-03-13T03:19:17;99440.31;;;12.35;40.73
31005;BME280;17676;52.254;4.490;2023-03-13T03:21:42;99426.22;;;12.38;41.04
31005;BME280;17676;52.254;4.490;2023-03-13T03:24:08;99452.81;;;12.36;41.38
31005;BME280;17676;52.254;4.490;2023-03-13T03:26:33;99413.88;;;12.26;41.73
31005;BME280;17676;52.254;4.490;2023-03-13T03:28:59;99420.44;;;12.30;42.03
31005;BME280;17676;52.254;4.490;2023-03-13T03:31:24;99409.50;;;12.25;42.47
31005;BME280;17676;52.254;4.490;2023-03-13T03:33:50;99572.38;;;12.13;42.59
31005;BME280;17676;52.254;4.490;2023-03-13T03:36:20;99622.50;;;12.27;42.85
31005;BME280;17676;52.254;4.490;2023-03-13T03:38:46;99609.19;;;12.26;42.64
31005;BME280;17676;52.254;4.490;2023-03-13T03:41:13;99602.63;;;12.22;43.11
31005;BME280;17676;52.254;4.490;2023-03-13T03:43:39;99600.88;;;12.32;43.42
31005;BME280;17676;52.254;4.490;2023-03-13T03:46:05;99612.19;;;12.46;43.39
31005;BME280;17676;52.254;4.490;2023-03-13T03:48:31;99611.06;;;12.42;44.24
31005;BME280;17676;52.254;4.490;2023-03-13T03:50:57;99627.41;;;12.47;45.04
31005;BME280;17676;52.254;4.490;2023-03-13T03:53:23;99617.94;;;12.49;45.54
31005;BME280;17676;52.254;4.490;2023-03-13T03:55:48;99591.63;;;12.50;45.82
31005;BME280;17676;52.254;4.490;2023-03-13T03:58:16;99601.72;;;12.54;46.01
31005;BME280;17676;52.254;4.490;2023-03-13T04:00:44;99607.66;;;12.51;46.18
31005;BME280;17676;52.254;4.490;2023-03-13T04:03:09;99587.84;;;12.51;46.17
31005;BME280;17676;52.254;4.490;2023-03-13T04:05:35;99613.91;;;12.52;46.13
31005;BME280;17676;52.254;4.490;2023-03-13T04:08:00;99610.44;;;12.56;45.93
31005;BME280;17676;52.254;4.490;2023-03-13T04:10:26;99612.06;;;12.57;45.76
31005;BME280;17676;52.254;4.490;2023-03-13T04:12:51;99618.09;;;12.59;45.61
31005;BME280;17676;52.254;4.490;2023-03-13T04:15:17;99621.28;;;12.56;45.61
31005;BME280;17676;52.254;4.490;2023-03-13T04:17:43;99633.72;;;12.52;45.56
31005;BME280;17676;52.254;4.490;2023-03-13T04:20:11;99601.09;;;12.47;45.35
31005;BME280;17676;52.254;4.490;2023-03-13T04:22:39;99587.53;;;12.47;45.15
31005;BME280;17676;52.254;4.490;2023-03-13T04:25:05;99584.28;;;12.50;45.25
31005;BME280;17676;52.254;4.490;2023-03-13T04:27:32;99587.09;;;12.55;45.63
31005;BME280;17676;52.254;4.490;2023-03-13T04:29:57;99578.19;;;12.60;45.94
31005;BME280;17676;52.254;4.490;2023-03-13T04:32:23;99578.56;;;12.68;46.60
31005;BME280;17676;52.254;4.490;2023-03-13T04:34:48;99571.56;;;12.72;47.42
31005;BME280;17676;52.254;4.490;2023-03-13T04:37:14;99554.25;;;12.78;48.05
31005;BME280;17676;52.254;4.490;2023-03-13T04:39:40;99559.28;;;12.91;48.50
31005;BME280;17676;52.254;4.490;2023-03-13T04:42:10;99592.38;;;12.88;49.45
31005;BME280;17676;52.254;4.490;2023-03-13T04:44:35;99556.13;;;12.99;47.49
31005;BME280;17676;52.254;4.490;2023-03-13T04:47:08;99560.25;;;13.02;47.58
31005;BME280;17676;52.254;4.490;2023-03-13T04:49:34;99527.66;;;13.02;47.10
31005;BME280;17676;52.254;4.490;2023-03-13T04:51:59;99554.03;;;13.06;46.71
31005;BME280;17676;52.254;4.490;2023-03-13T04:54:25;99536.94;;;13.06;45.98
31005;BME280;17676;52.254;4.490;2023-03-13T04:56:50;99514.88;;;13.02;45.58
31005;BME280;17676;52.254;4.490;2023-03-13T04:59:16;99521.94;;;13.03;44.90
31005;BME280;17676;52.254;4.490;2023-03-13T05:01:42;99521.66;;;13.00;44.88
31005;BME280;17676;52.254;4.490;2023-03-13T05:04:09;99524.41;;;13.05;45.39
31005;BME280;17676;52.254;4.490;2023-03-13T05:06:35;99512.22;;;13.07;46.25
31005;BME280;17676;52.254;4.490;2023-03-13T05:09:00;99518.72;;;13.06;46.99
31005;BME280;17676;52.254;4.490;2023-03-13T05:11:26;99520.91;;;13.04;47.53
31005;BME280;17676;52.254;4.490;2023-03-13T05:13:53;99490.84;;;12.89;46.62
31005;BME280;17676;52.254;4.490;2023-03-13T05:16:18;99483.81;;;12.93;46.80
31005;BME280;17676;52.254;4.490;2023-03-13T05:18:43;99506.25;;;13.05;47.84
31005;BME280;17676;52.254;4.490;2023-03-13T05:21:09;99490.44;;;13.02;49.49
31005;BME280;17676;52.254;4.490;2023-03-13T05:23:35;99457.84;;;13.02;49.21
31005;BME280;17676;52.254;4.490;2023-03-13T05:26:00;99469.16;;;12.94;52.75
31005;BME280;17676;52.254;4.490;2023-03-13T05:28:26;99453.94;;;12.93;60.15
31005;BME280;17676;52.254;4.490;2023-03-13T05:30:52;99461.16;;;13.04;70.73
31005;BME280;17676;52.254;4.490;2023-03-13T05:33:20;99445.66;;;13.05;92.33
31005;BME280;17676;52.254;4.490;2023-03-13T05:35:46;99463.06;;;13.09;100.00
31005;BME280;17676;52.254;4.490;2023-03-13T05:38:12;99441.34;;;13.09;100.00
31005;BME280;17676;52.254;4.490;2023-03-13T05:40:38;99447.13;;;13.17;100.00
31005;BME280;17676;52.254;4.490;2023-03-13T05:43:04;99438.41;;;13.15;100.00
31005;BME280;17676;52.254;4.490;2023-03-13T05:45:30;99435.78;;;13.25;100.00
31005;BME280;17676;52.254;4.490;2023-03-13T05:47:55;99442.84;;;13.26;100.00
31005;BME280;17676;52.254;4.490;2023-03-13T05:50:23;99447.25;;;13.32;100.00
31005;BME280;17676;52.254;4.490;2023-03-13T05:52:49;99428.41;;;13.21;100.00
31005;BME280;17676;52.254;4.490;2023-03-13T05:55:14;99438.50;;;13.25;100.00
31005;BME280;17676;52.254;4.490;2023-03-13T05:57:43;99426.81;;;13.25;100.00
31005;BME280;17676;52.254;4.490;2023-03-13T06:00:09;99426.53;;;13.26;100.00
31005;BME280;17676;52.254;4.490;2023-03-13T06:02:35;99421.59;;;13.18;100.00
31005;BME280;17676;52.254;4.490;2023-03-13T06:05:00;99418.09;;;13.18;100.00
31005;BME280;17676;52.254;4.490;2023-03-13T06:07:26;99433.41;;;13.02;100.00
31005;BME280;17676;52.254;4.490;2023-03-13T06:09:51;99424.31;;;12.92;100.00
31005;BME280;17676;52.254;4.490;2023-03-13T06:12:17;99439.72;;;12.81;100.00
31005;BME280;17676;52.254;4.490;2023-03-13T06:14:42;99454.78;;;12.67;100.00
31005;BME280;17676;52.254;4.490;2023-03-13T06:17:07;99451.56;;;12.49;100.00
31005;BME280;17676;52.254;4.490;2023-03-13T06:19:33;99455.25;;;12.38;100.00
31005;BME280;17676;52.254;4.490;2023-03-13T06:21:59;99440.69;;;12.22;100.00
31005;BME280;17676;52.254;4.490;2023-03-13T06:24:24;99426.28;;;12.17;100.00
31005;BME280;17676;52.254;4.490;2023-03-13T06:26:50;99457.53;;;12.24;100.00
31005;BME280;17676;52.254;4.490;2023-03-13T06:29:16;99463.50;;;12.26;100.00
31005;BME280;17676;52.254;4.490;2023-03-13T06:31:42;99451.66;;;12.32;100.00
31005;BME280;17676;52.254;4.490;2023-03-13T06:34:11;99459.22;;;12.30;100.00
31005;BME280;17676;52.254;4.490;2023-03-13T06:36:37;99461.69;;;12.32;100.00
31005;BME280;17676;52.254;4.490;2023-03-13T06:39:02;99464.09;;;12.28;100.00
31005;BME280;17676;52.254;4.490;2023-03-13T06:41:28;99481.06;;;12.40;100.00
31005;BME280;17676;52.254;4.490;2023-03-13T06:43:57;99479.44;;;12.39;94.22
31005;BME280;17676;52.254;4.490;2023-03-13T06:46:25;99465.47;;;12.31;79.00
31005;BME280;17676;52.254;4.490;2023-03-13T06:48:51;99466.63;;;12.35;63.79
31005;BME280;17676;52.254;4.490;2023-03-13T06:51:19;99488.72;;;12.43;56.35
31005;BME280;17676;52.254;4.490;2023-03-13T06:53:45;99483.84;;;12.45;52.99
31005;BME280;17676;52.254;4.490;2023-03-13T06:56:11;99480.44;;;12.33;48.51
31005;BME280;17676;52.254;4.490;2023-03-13T06:58:37;99496.50;;;12.40;46.79
31005;BME280;17676;52.254;4.490;2023-03-13T07:01:07;99496.22;;;12.36;46.11
31005;BME280;17676;52.254;4.490;2023-03-13T07:03:33;99503.91;;;12.44;45.93
31005;BME280;17676;52.254;4.490;2023-03-13T07:05:59;99485.34;;;12.36;46.23
31005;BME280;17676;52.254;4.490;2023-03-13T07:08:26;99491.41;;;12.43;46.40
31005;BME280;17676;52.254;4.490;2023-03-13T07:10:53;99485.34;;;12.36;46.07
31005;BME280;17676;52.254;4.490;2023-03-13T07:13:21;99487.69;;;12.28;45.05
31005;BME280;17676;52.254;4.490;2023-03-13T07:15:48;99483.28;;;12.22;42.70
31005;BME280;17676;52.254;4.490;2023-03-13T07:18:17;99482.19;;;12.23;41.72
31005;BME280;17676;52.254;4.490;2023-03-13T07:20:43;99465.88;;;12.18;40.95
31005;BME280;17676;52.254;4.490;2023-03-13T07:23:08;99474.75;;;12.13;39.77
31005;BME280;17676;52.254;4.490;2023-03-13T07:25:35;99488.06;;;12.15;39.20
31005;BME280;17676;52.254;4.490;2023-03-13T07:28:01;99506.16;;;12.09;38.57
31005;BME280;17676;52.254;4.490;2023-03-13T07:30:27;99509.94;;;12.08;38.05
31005;BME280;17676;52.254;4.490;2023-03-13T07:32:52;99504.03;;;12.11;38.11
31005;BME280;17676;52.254;4.490;2023-03-13T07:35:18;99511.09;;;12.12;37.80
31005;BME280;17676;52.254;4.490;2023-03-13T07:37:43;99503.19;;;12.11;38.77
31005;BME280;17676;52.254;4.490;2023-03-13T07:40:10;99502.50;;;12.20;39.16
31005;BME280;17676;52.254;4.490;2023-03-13T07:42:40;99471.34;;;12.23;39.70
31005;BME280;17676;52.254;4.490;2023-03-13T07:45:07;99495.72;;;12.39;40.08
31005;BME280;17676;52.254;4.490;2023-03-13T07:47:33;99481.06;;;12.40;41.04
31005;BME280;17676;52.254;4.490;2023-03-13T07:49:59;99479.03;;;12.52;42.20
31005;BME280;17676;52.254;4.490;2023-03-13T07:52:29;99485.41;;;12.63;43.25
31005;BME280;17676;52.254;4.490;2023-03-13T07:54:56;99481.31;;;12.60;44.01
31005;BME280;17676;52.254;4.490;2023-03-13T07:57:21;99481.25;;;12.55;44.47
31005;BME280;17676;52.254;4.490;2023-03-13T07:59:47;99467.94;;;12.54;45.94
31005;BME280;17676;52.254;4.490;2023-03-13T08:02:12;99463.25;;;12.49;48.32
31005;BME280;17676;52.254;4.490;2023-03-13T08:04:38;99463.25;;;12.49;49.33
31005;BME280;17676;52.254;4.490;2023-03-13T08:07:08;99434.09;;;12.40;50.73
31005;BME280;17676;52.254;4.490;2023-03-13T08:09:33;99414.22;;;12.56;51.78
31005;BME280;17676;52.254;4.490;2023-03-13T08:11:59;99449.34;;;12.67;52.21
31005;BME280;17676;52.254;4.490;2023-03-13T08:14:25;99454.88;;;12.77;53.34
31005;BME280;17676;52.254;4.490;2023-03-13T08:16:51;99431.94;;;12.90;55.24
31005;BME280;17676;52.254;4.490;2023-03-13T08:19:17;99429.06;;;13.01;63.67
31005;BME280;17676;52.254;4.490;2023-03-13T08:21:46;99417.44;;;13.06;76.19
31005;BME280;17676;52.254;4.490;2023-03-13T08:24:12;99415.63;;;13.16;88.80
31005;BME280;17676;52.254;4.490;2023-03-13T08:26:40;99450.75;;;13.28;100.00
31005;BME280;17676;52.254;4.490;2023-03-13T08:29:09;99421.22;;;13.41;100.00
31005;BME280;17676;52.254;4.490;2023-03-13T08:31:44;99413.38;;;13.45;100.00
31005;BME280;17676;52.254;4.490;2023-03-13T08:34:15;99397.31;;;13.43;100.00
31005;BME280;17676;52.254;4.490;2023-03-13T08:36:41;99452.78;;;13.47;100.00
31005;BME280;17676;52.254;4.490;2023-03-13T08:39:14;99420.66;;;13.81;100.00
31005;BME280;17676;52.254;4.490;2023-03-13T08:41:39;99394.25;;;14.33;100.00
31005;BME280;17676;52.254;4.490;2023-03-13T08:44:06;99384.19;;;14.38;100.00
31005;BME280;17676;52.254;4.490;2023-03-13T08:46:33;99388.34;;;15.01;100.00
31005;BME280;17676;52.254;4.490;2023-03-13T08:48:59;99371.97;;;15.26;100.00
31005;BME280;17676;52.254;4.490;2023-03-13T08:51:26;99367.81;;;15.74;100.00
31005;BME280;17676;52.254;4.490;2023-03-13T08:53:53;99366.22;;;15.63;100.00
31005;BME280;17676;52.254;4.490;2023-03-13T08:56:21;99350.41;;;15.50;100.00
31005;BME280;17676;52.254;4.490;2023-03-13T08:59:19;99362.81;;;16.01;100.00
31005;BME280;17676;52.254;4.490;2023-03-13T09:01:45;99357.19;;;16.31;100.00
31005;BME280;17676;52.254;4.490;2023-03-13T09:04:10;99340.03;;;16.20;100.00
31005;BME280;17676;52.254;4.490;2023-03-13T09:06:39;99349.13;;;16.11;100.00
31005;BME280;17676;52.254;4.490;2023-03-13T09:09:05;99308.31;;;15.81;100.00
31005;BME280;17676;52.254;4.490;2023-03-13T09:11:32;99298.28;;;16.20;100.00
31005;BME280;17676;52.254;4.490;2023-03-13T09:14:00;99283.06;;;16.86;100.00
31005;BME280;17676;52.254;4.490;2023-03-13T09:16:29;99282.94;;;16.29;100.00
31005;BME280;17676;52.254;4.490;2023-03-13T09:19:01;99289.41;;;16.48;100.00
31005;BME280;17676;52.254;4.490;2023-03-13T09:21:33;99259.59;;;16.51;100.00
31005;BME280;17676;52.254;4.490;2023-03-13T09:24:00;99279.22;;;16.15;100.00
31005;BME280;17676;52.254;4.490;2023-03-13T09:26:26;99271.16;;;15.90;100.00
31005;BME280;17676;52.254;4.490;2023-03-13T09:28:52;99257.03;;;14.89;100.00
31005;BME280;17676;52.254;4.490;2023-03-13T09:31:24;99249.19;;;14.47;100.00
31005;BME280;17676;52.254;4.490;2023-03-13T09:34:05;99237.47;;;14.42;100.00
31005;BME280;17676;52.254;4.490;2023-03-13T09:36:31;99265.44;;;15.23;100.00
31005;BME280;17676;52.254;4.490;2023-03-13T09:38:58;99231.25;;;15.60;100.00
31005;BME280;17676;52.254;4.490;2023-03-13T09:49:46;99238.22;;;15.08;100.00
31005;BME280;17676;52.254;4.490;2023-03-13T09:54:54;99233.41;;;14.34;100.00
31005;BME280;17676;52.254;4.490;2023-03-13T09:57:35;99251.38;;;14.45;100.00
31005;BME280;17676;52.254;4.490;2023-03-13T10:00:15;99242.91;;;14.57;100.00
31005;BME280;17676;52.254;4.490;2023-03-13T10:02:50;99248.63;;;14.60;100.00
31005;BME280;17676;52.254;4.490;2023-03-13T10:05:26;99221.16;;;14.52;100.00
31005;BME280;17676;52.254;4.490;2023-03-13T10:07:58;99224.53;;;15.23;100.00
31005;BME280;17676;52.254;4.490;2023-03-13T10:10:42;99215.66;;;15.61;100.00
31005;BME280;17676;52.254;4.490;2023-03-13T10:13:50;99187.66;;;16.61;100.00
31005;BME280;17676;52.254;4.490;2023-03-13T10:19:31;99195.25;;;16.69;100.00
31005;BME280;17676;52.254;4.490;2023-03-13T10:21:58;99157.69;;;16.79;100.00
31005;BME280;17676;52.254;4.490;2023-03-13T10:24:33;99184.44;;;16.59;100.00
31005;BME280;17676;52.254;4.490;2023-03-13T10:27:02;99200.69;;;16.69;100.00
31005;BME280;17676;52.254;4.490;2023-03-13T10:29:31;99212.66;;;16.06;100.00
31005;BME280;17676;52.254;4.490;2023-03-13T10:32:06;99204.88;;;16.28;100.00
31005;BME280;17676;52.254;4.490;2023-03-13T10:34:48;99194.50;;;16.25;100.00
31005;BME280;17676;52.254;4.490;2023-03-13T10:37:20;99193.19;;;15.84;100.00
31005;BME280;17676;52.254;4.490;2023-03-13T10:39:45;99201.34;;;15.35;100.00
31005;BME280;17676;52.254;4.490;2023-03-13T10:42:31;99188.19;;;15.96;100.00
31005;BME280;17676;52.254;4.490;2023-03-13T10:45:03;99216.16;;;16.55;100.00
31005;BME280;17676;52.254;4.490;2023-03-13T10:47:36;99211.88;;;16.39;100.00
31005;BME280;17676;52.254;4.490;2023-03-13T10:50:03;99196.13;;;16.26;100.00
31005;BME280;17676;52.254;4.490;2023-03-13T10:52:41;99195.25;;;16.35;100.00
31005;BME280;17676;52.254;4.490;2023-03-13T10:55:25;99185.88;;;16.13;100.00
31005;BME280;17676;52.254;4.490;2023-03-13T10:58:01;99213.38;;;15.83;100.00
31005;BME280;17676;52.254;4.490;2023-03-13T11:00:34;99222.91;;;16.24;100.00
31005;BME280;17676;52.254;4.490;2023-03-13T11:03:25;99193.59;;;16.01;100.00
31005;BME280;17676;52.254;4.490;2023-03-13T11:05:59;99209.13;;;16.44;100.00
31005;BME280;17676;52.254;4.490;2023-03-13T11:08:28;99203.16;;;16.37;100.00
31005;BME280;17676;52.254;4.490;2023-03-13T11:11:01;99187.66;;;16.61;100.00
31005;BME280;17676;52.254;4.490;2023-03-13T11:13:38;99184.59;;;16.39;100.00
31005;BME280;17676;52.254;4.490;2023-03-13T11:21:24;99218.59;;;15.06;100.00
31005;BME280;17676;52.254;4.490;2023-03-13T11:24:02;99224.03;;;15.11;100.00
31005;BME280;17676;52.254;4.490;2023-03-13T11:32:59;99219.09;;;15.23;100.00
31005;BME280;17676;52.254;4.490;2023-03-13T11:35:33;99215.88;;;15.01;100.00
31005;BME280;17676;52.254;4.490;2023-03-13T11:38:06;99217.59;;;14.61;100.00
31005;BME280;17676;52.254;4.490;2023-03-13T11:46:52;99225.19;;;15.68;100.00
31005;BME280;17676;52.254;4.490;2023-03-13T11:49:26;99214.41;;;15.33;100.00
31005;BME280;17676;52.254;4.490;2023-03-13T11:52:28;99226.63;;;15.46;100.00
31005;BME280;17676;52.254;4.490;2023-03-13T11:55:24;99213.72;;;14.93;100.00
31005;BME280;17676;52.254;4.490;2023-03-13T12:01:10;99217.03;;;14.64;100.00
31005;BME280;17676;52.254;4.490;2023-03-13T12:06:33;99177.25;;;14.83;100.00
31005;BME280;17676;52.254;4.490;2023-03-13T12:09:06;99186.03;;;14.45;100.00
31005;BME280;17676;52.254;4.490;2023-03-13T12:14:25;99214.88;;;14.26;100.00
31005;BME280;17676;52.254;4.490;2023-03-13T12:16:59;99202.91;;;14.62;100.00
31005;BME280;17676;52.254;4.490;2023-03-13T12:19:48;99194.16;;;14.60;100.00
31005;BME280;17676;52.254;4.490;2023-03-13T12:22:36;99155.50;;;14.63;100.00
31005;BME280;17676;52.254;4.490;2023-03-13T12:25:30;99166.72;;;14.47;100.00
31005;BME280;17676;52.254;4.490;2023-03-13T12:31:19;99150.63;;;14.40;100.00
31005;BME280;17676;52.254;4.490;2023-03-13T12:36:27;99172.56;;;14.94;100.00
31005;BME280;17676;52.254;4.490;2023-03-13T12:41:47;99157.72;;;14.51;100.00
31005;BME280;17676;52.254;4.490;2023-03-13T12:44:18;99159.88;;;14.44;100.00
31005;BME280;17676;52.254;4.490;2023-03-13T12:55:22;99105.41;;;14.69;100.00
31005;BME280;17676;52.254;4.490;2023-03-13T13:00:42;99105.91;;;14.76;100.00
31005;BME280;17676;52.254;4.490;2023-03-13T13:05:57;99081.44;;;14.66;100.00
31005;BME280;17676;52.254;4.490;2023-03-13T13:08:24;99105.41;;;14.69;100.00
31005;BME280;17676;52.254;4.490;2023-03-13T13:10:50;99103.19;;;14.76;100.00
31005;BME280;17676;52.254;4.490;2023-03-13T13:13:24;99099.91;;;14.79;100.00
31005;BME280;17676;52.254;4.490;2023-03-13T13:16:15;99074.84;;;14.82;100.00
31005;BME280;17676;52.254;4.490;2023-03-13T13:18:42;99092.84;;;14.78;100.00
31005;BME280;17676;52.254;4.490;2023-03-13T13:21:33;99079.19;;;14.83;100.00
31005;BME280;17676;52.254;4.490;2023-03-13T13:24:40;99084.94;;;14.77;100.00
31005;BME280;17676;52.254;4.490;2023-03-13T13:27:47;99061.00;;;14.69;100.00
31005;BME280;17676;52.254;4.490;2023-03-13T13:32:51;99085.53;;;14.64;100.00
31005;BME280;17676;52.254;4.490;2023-03-13T13:35:23;99095.59;;;14.63;100.00
31005;BME280;17676;52.254;4.490;2023-03-13T13:37:49;99088.00;;;14.65;100.00
31005;BME280;17676;52.254;4.490;2023-03-13T13:43:17;99087.97;;;14.70;100.00
31005;BME280;17676;52.254;4.490;2023-03-13T13:46:29;99147.91;;;14.65;100.00
31005;BME280;17676;52.254;4.490;2023-03-13T13:49:12;99096.66;;;14.77;100.00
31005;BME280;17676;52.254;4.490;2023-03-13T13:52:17;99074.06;;;14.77;100.00
31005;BME280;17676;52.254;4.490;2023-03-13T13:54:33;99090.91;;;14.84;100.00
31005;BME280;17676;52.254;4.490;2023-03-13T13:59:50;99091.78;;;14.69;100.00
31005;BME280;17676;52.254;4.490;2023-03-13T14:02:29;99071.66;;;14.55;100.00
31005;BME280;17676;52.254;4.490;2023-03-13T14:05:16;99079.03;;;14.50;100.00
31005;BME280;17676;52.254;4.490;2023-03-13T14:07:54;99066.78;;;14.52;100.00
31005;BME280;17676;52.254;4.490;2023-03-13T14:12:57;99050.50;;;14.32;100.00
31005;BME280;17676;52.254;4.490;2023-03-13T14:15:30;99060.88;;;14.30;100.00
31005;BME280;17676;52.254;4.490;2023-03-13T14:20:39;99042.34;;;14.37;100.00
31005;BME280;17676;52.254;4.490;2023-03-13T14:23:37;99048.31;;;14.39;100.00
31005;BME280;17676;52.254;4.490;2023-03-13T14:26:27;99034.16;;;14.42;100.00
31005;BME280;17676;52.254;4.490;2023-03-13T14:29:01;99043.41;;;14.46;100.00